Time;durP1;ratioP1;P1;durP2;ratioP2;P2;SDS_P1;SDS_P2;PMS_P1;PMS_P2;Temp;Humidity;BMP_temperature;BMP_pressure;BME280_temperature;BME280_humidity;BME280_pressure;Samples;Min_cycle;Max_cycle;Signal;HPM_P1;HPM_P2
2022/09/05 00:01:05;;;;;;;4.33;3.93;;;18.80;78.90;;;;;;5060225;28;20504;-44
2022/09/05 00:04:20;;;;;;;4.80;4.30;;;18.90;78.50;;;;;;5043961;28;20480;-44
2022/09/05 00:07:31;;;;;;;4.03;3.73;;;18.70;79.20;;;;;;5054909;28;20462;-44
2022/09/05 00:10:33;;;;;;;4.50;4.10;;;18.80;78.80;;;;;;5059050;28;20957;-45
2022/09/05 00:13:09;;;;;;;4.97;4.50;;;18.80;78.50;;;;;;5042402;28;20852;-45
2022/09/05 00:15:43;;;;;;;8.40;4.13;;;18.80;78.50;;;;;;5061984;28;20461;-45
2022/09/05 00:18:24;;;;;;;5.37;4.13;;;18.70;78.40;;;;;;5060487;28;20571;-45
2022/09/05 00:21:36;;;;;;;5.10;4.70;;;18.70;78.50;;;;;;5046499;28;20473;-44
2022/09/05 00:24:39;;;;;;;5.40;4.07;;;18.70;78.70;;;;;;5062179;28;20465;-44
2022/09/05 00:27:38;;;;;;;7.43;5.73;;;18.40;79.40;;;;;;5059287;28;20481;-44
2022/09/05 00:30:12;;;;;;;8.53;6.73;;;18.20;80.30;;;;;;5059564;28;21160;-45
2022/09/05 00:33:01;;;;;;;5.53;5.03;;;18.30;79.80;;;;;;5059036;28;20495;-44
2022/09/05 00:36:25;;;;;;;5.60;5.07;;;18.40;79.50;;;;;;5063188;28;20454;-44
2022/09/05 00:38:58;;;;;;;5.10;4.60;;;18.40;79.30;;;;;;5060539;28;20446;-44
2022/09/05 00:41:26;;;;;;;5.30;4.80;;;18.40;79.20;;;;;;5060407;28;20837;-44
2022/09/05 00:43:56;;;;;;;6.30;4.80;;;18.20;79.60;;;;;;5040759;28;20526;-44
2022/09/05 00:46:28;;;;;;;6.03;5.43;;;18.10;80.10;;;;;;5058183;28;20468;-44
2022/09/05 00:49:19;;;;;;;5.50;5.00;;;18.00;80.50;;;;;;5061168;28;20460;-45
2022/09/05 00:51:59;;;;;;;4.63;4.23;;;18.10;80.10;;;;;;5062969;28;20933;-44
2022/09/05 00:54:50;;;;;;;5.40;4.90;;;18.20;79.20;;;;;;5042356;28;20455;-44
2022/09/05 00:57:49;;;;;;;5.00;4.60;;;18.10;79.60;;;;;;5062910;28;20484;-44
2022/09/05 01:00:24;;;;;;;5.27;4.77;;;17.90;79.80;;;;;;5055050;28;20504;-44
2022/09/05 01:03:22;;;;;;;5.70;5.20;;;17.80;79.90;;;;;;5059895;28;20456;-44
2022/09/05 01:05:48;;;;;;;5.53;5.03;;;17.70;80.40;;;;;;5061773;28;20567;-44
2022/09/05 01:08:42;;;;;;;5.60;5.00;;;17.60;80.70;;;;;;5059483;28;20480;-44
2022/09/05 01:11:20;;;;;;;5.60;5.03;;;17.50;81.00;;;;;;5062390;28;20461;-44
2022/09/05 01:14:22;;;;;;;6.20;5.03;;;17.70;80.70;;;;;;5059273;28;20457;-44
2022/09/05 01:17:20;;;;;;;6.10;4.83;;;17.80;80.30;;;;;;5029181;28;20449;-44
2022/09/05 01:20:27;;;;;;;5.47;4.93;;;17.90;80.10;;;;;;5057943;28;20516;-44
2022/09/05 01:23:20;;;;;;;5.30;4.47;;;17.90;80.10;;;;;;5036686;28;20469;-44
2022/09/05 01:25:50;;;;;;;5.97;5.03;;;17.70;80.60;;;;;;5060527;28;20461;-44
2022/09/05 01:28:49;;;;;;;5.90;4.63;;;17.70;80.90;;;;;;5062024;28;20468;-44
2022/09/05 01:31:35;;;;;;;6.03;4.50;;;17.70;80.90;;;;;;5065251;28;21016;-44
2022/09/05 01:34:20;;;;;;;5.10;4.60;;;17.60;81.20;;;;;;5047603;28;20506;-44
2022/09/05 01:37:07;;;;;;;6.33;4.77;;;17.60;81.60;;;;;;5061935;28;20972;-44
2022/09/05 01:40:14;;;;;;;5.93;5.27;;;17.70;81.20;;;;;;5064372;28;20489;-44
2022/09/05 01:43:04;;;;;;;5.30;4.80;;;17.80;80.70;;;;;;5066191;28;20511;-44
2022/09/05 01:45:51;;;;;;;4.30;3.90;;;17.70;81.10;;;;;;5054563;28;20453;-44
2022/09/05 01:48:29;;;;;;;5.30;4.80;;;17.80;80.70;;;;;;5046479;28;20460;-44
2022/09/05 01:51:22;;;;;;;5.50;4.90;;;17.80;80.40;;;;;;5059164;28;20951;-44
2022/09/05 01:54:21;;;;;;;5.60;5.00;;;17.80;80.30;;;;;;5058603;28;20480;-44
2022/09/05 01:57:19;;;;;;;4.93;4.50;;;17.50;81.30;;;;;;5062540;28;20477;-44
2022/09/05 02:00:04;;;;;;;6.10;4.83;;;17.50;81.40;;;;;;5064259;28;21024;-44
2022/09/05 02:02:55;;;;;;;5.30;4.80;;;17.60;81.10;;;;;;5065117;28;20453;-44
2022/09/05 02:06:03;;;;;;;7.20;5.63;;;17.60;80.90;;;;;;5073469;28;20457;-43
2022/09/05 02:08:42;;;;;;;6.17;4.83;;;17.70;80.80;;;;;;5014637;28;20847;-43
2022/09/05 02:11:11;;;;;;;7.33;5.93;;;17.40;81.40;;;;;;5069471;28;20464;-43
2022/09/05 02:14:01;;;;;;;6.43;5.73;;;17.30;81.80;;;;;;5068651;28;20466;-43
2022/09/05 02:16:44;;;;;;;6.27;5.67;;;17.20;82.10;;;;;;5052325;28;20473;-43
2022/09/05 02:19:23;;;;;;;5.60;5.10;;;17.20;82.30;;;;;;5048836;28;20476;-43
2022/09/05 02:22:05;;;;;;;5.67;5.17;;;17.30;81.00;;;;;;5050499;28;20951;-44
2022/09/05 02:24:32;;;;;;;5.47;4.97;;;17.20;81.70;;;;;;5064267;28;20816;-44
2022/09/05 02:27:16;;;;;;;6.47;5.97;;;17.30;81.00;;;;;;5064476;28;20462;-44
2022/09/05 02:30:19;;;;;;;5.07;4.57;;;17.30;81.10;;;;;;5063822;28;20833;-44
2022/09/05 02:33:25;;;;;;;5.27;4.70;;;17.20;81.30;;;;;;5049060;28;20819;-44
2022/09/05 02:36:16;;;;;;;5.07;4.67;;;17.20;81.60;;;;;;5062495;28;20464;-44
2022/09/05 02:39:01;;;;;;;6.03;5.40;;;17.20;80.70;;;;;;5057290;28;20577;-44
2022/09/05 02:41:58;;;;;;;7.73;5.37;;;17.30;80.50;;;;;;5063375;28;20507;-44
2022/09/05 02:44:48;;;;;;;5.20;4.80;;;17.30;80.40;;;;;;5065890;28;20541;-44
2022/09/05 02:47:53;;;;;;;10.10;5.43;;;17.10;81.20;;;;;;5068302;28;20511;-44
2022/09/05 02:50:38;;;;;;;6.63;5.80;;;16.90;81.70;;;;;;5061720;28;20470;-44
2022/09/05 02:53:25;;;;;;;6.30;5.20;;;16.80;82.70;;;;;;5060986;28;20461;-44
2022/09/05 02:56:24;;;;;;;5.80;5.27;;;16.80;82.60;;;;;;5048046;28;20461;-44
2022/09/05 02:59:31;;;;;;;6.20;5.23;;;16.70;82.90;;;;;;5062023;28;20483;-45
2022/09/05 03:02:30;;;;;;;6.63;5.93;;;16.60;83.30;;;;;;5062706;28;20537;-44
2022/09/05 03:05:19;;;;;;;6.20;5.63;;;16.60;83.60;;;;;;5062276;28;20461;-44
2022/09/05 03:08:04;;;;;;;6.63;6.03;;;16.60;83.60;;;;;;5062590;28;20466;-45
2022/09/05 03:10:50;;;;;;;7.70;5.80;;;16.50;84.50;;;;;;5061969;28;20468;-44
2022/09/05 03:13:39;;;;;;;7.73;6.07;;;16.60;84.60;;;;;;5060906;28;20469;-44
2022/09/05 03:16:57;;;;;;;5.90;5.40;;;16.70;83.90;;;;;;5062332;28;20548;-44
2022/09/05 03:19:45;;;;;;;6.80;6.10;;;16.90;83.40;;;;;;5062169;28;20495;-44
2022/09/05 03:22:31;;;;;;;7.17;5.50;;;16.90;83.20;;;;;;5062921;28;20459;-44
2022/09/05 03:25:23;;;;;;;8.00;6.10;;;16.90;83.20;;;;;;5058969;28;20586;-44
2022/09/05 03:28:27;;;;;;;8.50;6.00;;;17.00;82.80;;;;;;5064049;28;20850;-44
2022/09/05 03:31:15;;;;;;;8.10;6.07;;;17.10;82.70;;;;;;5055259;28;20938;-44
2022/09/05 03:34:00;;;;;;;7.43;6.00;;;16.90;82.90;;;;;;5055034;28;20457;-45
2022/09/05 03:36:45;;;;;;;6.80;5.90;;;16.90;83.50;;;;;;5062730;28;20465;-44
2022/09/05 03:39:57;;;;;;;6.27;5.50;;;17.00;83.20;;;;;;5061972;28;20461;-44
2022/09/05 03:43:03;;;;;;;6.20;5.70;;;17.10;82.70;;;;;;5046819;28;20497;-44
2022/09/05 03:45:29;;;;;;;5.50;5.07;;;17.20;82.60;;;;;;5057158;28;20454;-44
2022/09/05 03:48:20;;;;;;;6.90;6.07;;;17.20;82.70;;;;;;5065030;28;20462;-44
2022/09/05 03:51:03;;;;;;;5.73;5.23;;;17.20;82.30;;;;;;5058991;28;20516;-44
2022/09/05 03:54:34;;;;;;;6.30;5.77;;;17.20;82.20;;;;;;5059366;28;20465;-44
2022/09/05 03:57:58;;;;;;;6.00;5.50;;;17.10;82.50;;;;;;5032046;28;20521;-44
2022/09/05 04:01:02;;;;;;;6.43;5.83;;;17.00;83.20;;;;;;5058871;28;20473;-44
2022/09/05 04:03:57;;;;;;;7.97;6.50;;;17.00;83.20;;;;;;5060140;28;20480;-44
2022/09/05 04:06:52;;;;;;;6.70;5.93;;;17.00;83.00;;;;;;5046194;28;20458;-44
2022/09/05 04:09:50;;;;;;;6.30;5.70;;;17.10;83.00;;;;;;5061141;28;20494;-44
2022/09/05 04:12:28;;;;;;;6.60;5.90;;;17.10;82.60;;;;;;5040889;28;20454;-44
2022/09/05 04:15:27;;;;;;;7.57;6.87;;;17.20;82.40;;;;;;5056581;28;20454;-44
2022/09/05 04:18:00;;;;;;;6.83;6.23;;;17.20;82.20;;;;;;5026007;28;20465;-44
2022/09/05 04:20:35;;;;;;;6.50;5.93;;;17.20;82.00;;;;;;5061756;28;20481;-44
2022/09/05 04:23:18;;;;;;;6.83;6.17;;;17.20;82.30;;;;;;5063096;28;20544;-44
2022/09/05 04:26:09;;;;;;;5.90;5.33;;;17.00;82.80;;;;;;5040550;28;20544;-44
2022/09/05 04:29:13;;;;;;;8.00;5.57;;;17.00;82.70;;;;;;5057049;28;20465;-44
2022/09/05 04:32:13;;;;;;;6.00;5.40;;;16.90;82.10;;;;;;5060387;28;20457;-44
2022/09/05 04:35:22;;;;;;;6.33;5.83;;;16.70;83.00;;;;;;5060448;28;20468;-44
2022/09/05 04:38:07;;;;;;;6.10;5.33;;;16.70;83.20;;;;;;5043557;28;20465;-44
2022/09/05 04:40:40;;;;;;;6.63;6.03;;;16.70;82.50;;;;;;5057881;28;20912;-44
2022/09/05 04:43:18;;;;;;;8.07;6.63;;;16.50;82.70;;;;;;5058461;28;20457;-44
2022/09/05 04:45:54;;;;;;;7.17;6.23;;;16.50;82.50;;;;;;5058977;28;20457;-44
2022/09/05 04:48:27;;;;;;;8.50;6.30;;;16.40;82.80;;;;;;5060564;28;20468;-44
2022/09/05 04:51:06;;;;;;;7.50;6.70;;;16.60;82.50;;;;;;5059526;28;20462;-44
2022/09/05 04:54:03;;;;;;;7.30;6.40;;;16.50;82.80;;;;;;5059202;28;20500;-44
2022/09/05 04:56:36;;;;;;;6.93;5.93;;;16.50;83.30;;;;;;5030338;28;20460;-45
2022/09/05 04:59:25;;;;;;;7.97;6.87;;;16.50;83.10;;;;;;5061486;28;20473;-45
2022/09/05 05:02:38;;;;;;;9.67;7.23;;;16.40;83.80;;;;;;5039736;28;20466;-45
2022/09/05 05:05:47;;;;;;;7.57;6.47;;;16.30;84.10;;;;;;5064402;28;21223;-45
2022/09/05 05:09:14;;;;;;;7.60;6.90;;;16.40;83.90;;;;;;5063941;28;20998;-45
2022/09/05 05:11:55;;;;;;;7.83;7.10;;;16.30;84.60;;;;;;5049178;28;20509;-45
2022/09/05 05:14:48;;;;;;;7.60;6.90;;;16.40;84.50;;;;;;5058389;28;22085;-44
2022/09/05 05:17:45;;;;;;;8.40;6.90;;;16.50;83.70;;;;;;5061301;28;20461;-45
2022/09/05 05:20:50;;;;;;;6.73;6.03;;;16.60;83.80;;;;;;5056237;28;20502;-44
2022/09/05 05:23:27;;;;;;;9.80;8.03;;;16.50;84.20;;;;;;5039214;28;20720;-44
2022/09/05 05:25:58;;;;;;;7.80;7.10;;;16.50;84.60;;;;;;5048941;28;20470;-45
2022/09/05 05:29:06;;;;;;;8.03;6.67;;;16.50;84.50;;;;;;5067563;28;20491;-44
2022/09/05 05:31:37;;;;;;;8.77;7.60;;;16.70;84.20;;;;;;4970391;28;20501;-45
2022/09/05 05:34:16;;;;;;;8.70;7.10;;;16.80;83.80;;;;;;5048365;28;20458;-45
2022/09/05 05:36:58;;;;;;;7.97;7.17;;;16.80;84.00;;;;;;5063110;28;20457;-45
2022/09/05 05:39:31;;;;;;;7.80;7.00;;;16.90;83.70;;;;;;5056240;28;20962;-45
2022/09/05 05:42:01;;;;;;;8.03;7.23;;;16.80;84.50;;;;;;5065321;28;20546;-44
2022/09/05 05:44:57;;;;;;;8.07;7.30;;;16.90;83.90;;;;;;5066354;28;20449;-44
2022/09/05 05:47:42;;;;;;;8.50;7.60;;;16.90;84.30;;;;;;5067285;28;20954;-44
2022/09/05 05:50:18;;;;;;;7.83;6.60;;;16.90;84.50;;;;;;5058126;28;20860;-45
2022/09/05 05:53:12;;;;;;;7.87;7.07;;;17.00;84.70;;;;;;5062085;28;20461;-45
2022/09/05 05:56:20;;;;;;;8.53;7.53;;;17.10;84.50;;;;;;5064991;28;20462;-45
2022/09/05 05:58:53;;;;;;;7.50;6.80;;;17.10;84.60;;;;;;5048825;28;20808;-45
2022/09/05 06:02:01;;;;;;;7.87;7.17;;;17.10;84.90;;;;;;5063603;28;20508;-45
2022/09/05 06:04:46;;;;;;;8.10;7.30;;;17.20;84.80;;;;;;5061996;28;20485;-45
2022/09/05 06:07:53;;;;;;;8.00;7.20;;;17.30;84.50;;;;;;5063696;28;20465;-45
2022/09/05 06:10:49;;;;;;;8.10;7.40;;;17.40;84.90;;;;;;5065979;28;20817;-44
2022/09/05 06:13:52;;;;;;;6.80;6.20;;;17.40;84.90;;;;;;5049842;28;20507;-44
2022/09/05 06:16:48;;;;;;;7.87;6.87;;;17.50;84.90;;;;;;5063609;28;20852;-44
2022/09/05 06:19:39;;;;;;;9.73;7.00;;;17.60;84.70;;;;;;5047401;28;20528;-45
2022/09/05 06:22:51;;;;;;;7.20;6.50;;;17.70;84.60;;;;;;5064500;28;20478;-44
2022/09/05 06:25:39;;;;;;;7.30;6.60;;;17.80;84.20;;;;;;5066537;28;20461;-44
2022/09/05 06:28:35;;;;;;;6.93;6.23;;;17.80;84.20;;;;;;5068503;28;20459;-43
2022/09/05 06:31:37;;;;;;;9.63;7.03;;;17.90;83.90;;;;;;5069082;28;20462;-43
2022/09/05 06:34:28;;;;;;;6.00;5.37;;;18.00;83.50;;;;;;5067689;28;20469;-44
2022/09/05 06:37:39;;;;;;;6.80;6.07;;;18.10;83.20;;;;;;5041569;28;20585;-44
2022/09/05 06:40:15;;;;;;;6.97;6.03;;;18.20;83.20;;;;;;5028810;28;20449;-44
2022/09/05 06:43:07;;;;;;;10.73;6.03;;;18.30;83.20;;;;;;5064891;28;20462;-44
2022/09/05 06:45:42;;;;;;;6.50;5.90;;;18.40;83.20;;;;;;5067055;28;20454;-45
2022/09/05 06:48:24;;;;;;;8.07;7.27;;;18.40;83.10;;;;;;5051284;28;20488;-44
2022/09/05 06:51:30;;;;;;;6.70;6.00;;;18.50;82.50;;;;;;5044249;28;20597;-44
2022/09/05 06:54:29;;;;;;;5.80;5.30;;;18.60;82.50;;;;;;5059418;28;20457;-44
2022/09/05 06:57:19;;;;;;;5.20;4.70;;;18.60;82.60;;;;;;5061117;28;20813;-44
2022/09/05 07:00:13;;;;;;;5.70;5.20;;;18.70;82.40;;;;;;5052547;28;20989;-44
2022/09/05 07:03:15;;;;;;;5.90;5.40;;;18.70;82.20;;;;;;5059281;28;21041;-44
2022/09/05 07:06:12;;;;;;;5.40;4.83;;;18.80;81.60;;;;;;5059891;28;21000;-44
2022/09/05 07:09:04;;;;;;;5.50;5.00;;;18.90;81.20;;;;;;5049841;28;20464;-44
2022/09/05 07:11:44;;;;;;;7.80;5.30;;;19.00;81.20;;;;;;5046819;28;20873;-44
2022/09/05 07:14:20;;;;;;;5.97;5.40;;;19.00;81.10;;;;;;5059933;28;20458;-44
2022/09/05 07:16:56;;;;;;;7.20;5.07;;;19.10;80.70;;;;;;5066233;28;20453;-44
2022/09/05 07:19:49;;;;;;;6.67;5.27;;;19.20;80.60;;;;;;5042979;28;20469;-44
2022/09/05 07:22:20;;;;;;;5.37;4.63;;;19.20;80.20;;;;;;5064166;28;20483;-44
2022/09/05 07:25:10;;;;;;;5.93;5.17;;;19.30;79.80;;;;;;5061438;28;20449;-44
2022/09/05 07:27:55;;;;;;;4.93;4.43;;;19.40;79.40;;;;;;5059194;28;20943;-44
2022/09/05 07:30:52;;;;;;;5.27;4.73;;;19.50;79.00;;;;;;5063990;28;20449;-44
2022/09/05 07:33:21;;;;;;;6.20;5.53;;;19.60;78.40;;;;;;5045039;28;20762;-44
2022/09/05 07:35:50;;;;;;;5.77;4.93;;;19.60;77.90;;;;;;5064144;28;20454;-44
2022/09/05 07:38:23;;;;;;;9.13;5.20;;;19.70;77.30;;;;;;5046331;28;20461;-44
2022/09/05 07:41:23;;;;;;;6.57;4.50;;;19.90;76.80;;;;;;5042602;28;20477;-44
2022/09/05 07:44:01;;;;;;;4.67;4.27;;;20.10;76.50;;;;;;5054574;28;20446;-44
2022/09/05 07:46:32;;;;;;;4.83;4.33;;;20.20;76.10;;;;;;5064576;28;20444;-44
2022/09/05 07:49:26;;;;;;;5.83;4.10;;;20.40;75.40;;;;;;5045650;28;20458;-44
2022/09/05 07:52:00;;;;;;;5.63;4.87;;;20.40;75.10;;;;;;5047557;28;20469;-44
2022/09/05 07:54:51;;;;;;;4.83;3.73;;;20.50;75.00;;;;;;5062860;28;20437;-44
2022/09/05 07:57:46;;;;;;;4.80;4.20;;;20.50;74.20;;;;;;5061023;28;20481;-44
2022/09/05 08:00:21;;;;;;;6.20;4.70;;;20.70;74.20;;;;;;5059767;28;20539;-44
2022/09/05 08:02:58;;;;;;;6.53;3.97;;;20.90;74.10;;;;;;5060812;28;20557;-44
2022/09/05 08:05:27;;;;;;;7.00;4.20;;;21.00;73.20;;;;;;5059101;28;20817;-44
2022/09/05 08:08:06;;;;;;;4.47;4.07;;;21.10;72.60;;;;;;5055287;28;20464;-44
2022/09/05 08:10:51;;;;;;;4.23;3.83;;;21.20;72.50;;;;;;5061710;28;20898;-44
2022/09/05 08:13:41;;;;;;;5.43;3.53;;;21.30;71.90;;;;;;5063117;28;20450;-44
2022/09/05 08:16:16;;;;;;;4.03;3.30;;;21.50;72.00;;;;;;5053412;28;20457;-45
2022/09/05 08:19:04;;;;;;;3.50;3.20;;;21.70;71.90;;;;;;5060825;28;20598;-44
2022/09/05 08:21:42;;;;;;;8.00;3.60;;;21.80;70.10;;;;;;5059010;28;20485;-45
2022/09/05 08:24:19;;;;;;;4.17;3.70;;;21.90;70.20;;;;;;5061414;28;20821;-44
2022/09/05 08:27:10;;;;;;;3.73;3.40;;;22.00;70.10;;;;;;5060240;28;20456;-44
2022/09/05 08:29:52;;;;;;;5.93;3.03;;;22.10;68.50;;;;;;5039854;28;21061;-45
2022/09/05 08:32:57;;;;;;;4.50;3.37;;;22.20;68.70;;;;;;5061592;28;20539;-45
2022/09/05 08:35:54;;;;;;;3.40;3.10;;;22.40;68.60;;;;;;5058546;28;21538;-45
2022/09/05 08:38:29;;;;;;;4.50;3.10;;;22.50;68.90;;;;;;5064495;28;20452;-45
2022/09/05 08:41:12;;;;;;;3.20;2.90;;;22.50;68.80;;;;;;5063145;28;20516;-44
2022/09/05 08:44:03;;;;;;;4.00;3.60;;;22.50;68.10;;;;;;5063227;28;20461;-44
2022/09/05 08:47:02;;;;;;;5.00;3.97;;;22.50;68.30;;;;;;5060032;28;21076;-45
2022/09/05 08:50:15;;;;;;;4.30;3.90;;;22.60;67.70;;;;;;5032281;28;20448;-45
2022/09/05 08:52:57;;;;;;;3.80;3.00;;;22.60;66.60;;;;;;5020077;28;20983;-45
2022/09/05 08:55:53;;;;;;;3.87;3.57;;;22.70;66.50;;;;;;5041562;28;21062;-45
2022/09/05 08:58:57;;;;;;;3.93;3.50;;;22.80;66.40;;;;;;5028444;28;20473;-45
2022/09/05 09:02:09;;;;;;;4.60;3.23;;;22.90;66.20;;;;;;5052442;28;20500;-45
2022/09/05 09:05:11;;;;;;;3.67;3.37;;;23.10;65.90;;;;;;5053987;28;20486;-45
2022/09/05 09:07:49;;;;;;;3.40;3.10;;;23.10;65.60;;;;;;5061920;28;20448;-45
2022/09/05 09:10:42;;;;;;;2.73;2.53;;;23.20;65.80;;;;;;5063844;28;20438;-45
2022/09/05 09:13:33;;;;;;;4.40;3.33;;;23.20;65.80;;;;;;5039121;28;20953;-45
2022/09/05 09:16:09;;;;;;;5.70;3.27;;;23.30;66.10;;;;;;5066649;28;20463;-45
2022/09/05 09:18:46;;;;;;;3.30;2.87;;;23.40;65.40;;;;;;5045996;28;20459;-45
2022/09/05 09:21:31;;;;;;;3.47;2.70;;;23.40;64.90;;;;;;5058503;28;20485;-45
2022/09/05 09:24:09;;;;;;;4.73;3.10;;;23.50;65.00;;;;;;5057046;28;20473;-45
2022/09/05 09:26:53;;;;;;;5.23;2.90;;;23.50;64.60;;;;;;5046784;28;20464;-45
2022/09/05 09:29:22;;;;;;;3.20;2.63;;;23.60;65.00;;;;;;5032749;28;20464;-45
2022/09/05 09:31:55;;;;;;;2.93;2.63;;;23.50;63.90;;;;;;5058175;28;20468;-45
2022/09/05 09:34:43;;;;;;;4.50;2.87;;;23.60;64.10;;;;;;5057168;28;20469;-45
2022/09/05 09:37:26;;;;;;;4.60;2.50;;;23.70;64.30;;;;;;5062026;28;20838;-45
2022/09/05 09:40:42;;;;;;;5.57;2.60;;;23.70;63.40;;;;;;5053338;28;20531;-45
2022/09/05 09:43:49;;;;;;;3.80;2.47;;;23.70;63.50;;;;;;5061682;28;20485;-45
2022/09/05 09:46:33;;;;;;;2.60;2.40;;;23.80;62.90;;;;;;5062702;28;20461;-45
2022/09/05 09:49:07;;;;;;;4.03;2.33;;;23.90;62.50;;;;;;5046966;28;20455;-45
2022/09/05 09:52:26;;;;;;;2.50;2.27;;;24.00;62.30;;;;;;5061258;28;20517;-45
2022/09/05 09:55:30;;;;;;;3.00;2.70;;;23.90;61.50;;;;;;5061972;28;20460;-45
2022/09/05 09:58:22;;;;;;;4.60;2.50;;;24.00;61.60;;;;;;5056254;28;20856;-45
2022/09/05 10:00:55;;;;;;;2.97;2.67;;;24.00;61.80;;;;;;5058211;28;20512;-45
2022/09/05 10:03:37;;;;;;;4.63;2.50;;;24.10;62.80;;;;;;5057821;28;20491;-45
2022/09/05 10:07:04;;;;;;;2.40;2.13;;;24.20;61.60;;;;;;5059505;28;20497;-45
2022/09/05 10:10:22;;;;;;;3.20;2.40;;;24.40;61.10;;;;;;5055969;28;20457;-45
2022/09/05 10:13:27;;;;;;;2.60;2.40;;;24.50;60.90;;;;;;5062866;28;20468;-45
2022/09/05 10:16:15;;;;;;;3.33;2.30;;;24.80;59.90;;;;;;5055671;28;20457;-45
2022/09/05 10:19:05;;;;;;;2.53;2.33;;;25.00;59.50;;;;;;5062488;28;20963;-45
2022/09/05 10:22:08;;;;;;;2.57;2.37;;;25.20;58.70;;;;;;5044682;28;20488;-45
2022/09/05 10:25:14;;;;;;;2.30;2.10;;;25.50;57.70;;;;;;5059191;28;20471;-45
2022/09/05 10:28:24;;;;;;;3.67;2.47;;;25.70;57.20;;;;;;5056826;28;20835;-45
2022/09/05 10:31:11;;;;;;;2.67;2.47;;;26.10;56.70;;;;;;5037264;28;20453;-45
2022/09/05 10:34:17;;;;;;;2.07;1.97;;;26.70;54.30;;;;;;5058314;28;20863;-45
2022/09/05 10:37:10;;;;;;;3.30;3.00;;;27.60;52.20;;;;;;5055295;28;20465;-45
2022/09/05 10:39:45;;;;;;;3.50;2.60;;;28.40;51.10;;;;;;5052502;28;20215;-45
2022/09/05 10:42:24;;;;;;;2.03;1.87;;;28.70;49.90;;;;;;5064384;28;20491;-45
2022/09/05 10:45:03;;;;;;;2.77;2.30;;;28.60;50.40;;;;;;5063713;28;20453;-45
2022/09/05 10:47:37;;;;;;;2.00;1.90;;;28.20;50.30;;;;;;5063780;28;20211;-45
2022/09/05 10:50:07;;;;;;;4.43;2.53;;;27.80;51.20;;;;;;5040373;28;20453;-45
2022/09/05 10:52:38;;;;;;;2.93;2.63;;;27.80;51.80;;;;;;5066381;28;20495;-45
2022/09/05 10:55:29;;;;;;;4.87;2.53;;;28.20;50.40;;;;;;5063664;28;20211;-45
2022/09/05 10:58:23;;;;;;;3.53;2.90;;;28.70;49.80;;;;;;5060185;28;20483;-45
2022/09/05 11:01:59;;;;;;;2.90;2.30;;;29.30;48.60;;;;;;5060746;28;20210;-45
2022/09/05 11:05:15;;;;;;;2.20;2.10;;;29.50;47.70;;;;;;5053876;28;20222;-45
2022/09/05 11:07:51;;;;;;;2.60;2.37;;;29.10;48.90;;;;;;5056613;28;20211;-45
2022/09/05 11:10:23;;;;;;;2.13;1.93;;;28.50;48.80;;;;;;5058882;28;20597;-45
2022/09/05 11:13:33;;;;;;;6.00;2.50;;;28.10;50.00;;;;;;5036504;28;20222;-45
2022/09/05 11:16:21;;;;;;;2.47;2.27;;;27.80;50.70;;;;;;5053040;28;20213;-45
2022/09/05 11:19:24;;;;;;;3.17;2.13;;;27.50;51.30;;;;;;5062622;28;20243;-45
2022/09/05 11:22:00;;;;;;;3.20;2.30;;;27.30;52.30;;;;;;5015415;28;20238;-45
2022/09/05 11:24:56;;;;;;;2.63;2.43;;;27.00;53.10;;;;;;5057325;28;20214;-45
2022/09/05 11:27:39;;;;;;;4.23;2.50;;;26.80;54.00;;;;;;5060964;28;20885;-45
2022/09/05 11:30:12;;;;;;;4.00;2.87;;;26.60;54.20;;;;;;5063337;28;20472;-45
2022/09/05 11:33:25;;;;;;;2.20;2.10;;;26.40;54.40;;;;;;5061627;28;20551;-45
2022/09/05 11:36:20;;;;;;;2.53;2.33;;;26.30;54.90;;;;;;5065291;28;21051;-45
2022/09/05 11:39:43;;;;;;;2.77;2.53;;;26.20;55.00;;;;;;5067336;28;20445;-45
2022/09/05 11:42:49;;;;;;;3.17;2.30;;;26.20;55.00;;;;;;5063812;28;20538;-45
2022/09/05 11:45:30;;;;;;;3.07;2.77;;;26.00;55.60;;;;;;5057602;28;20453;-45
2022/09/05 11:48:28;;;;;;;3.03;2.57;;;25.90;55.20;;;;;;5065494;28;20437;-45
2022/09/05 11:51:31;;;;;;;3.00;2.50;;;25.90;55.90;;;;;;5065391;28;20467;-45
2022/09/05 11:54:31;;;;;;;3.10;2.80;;;25.90;55.90;;;;;;5065209;28;20498;-45
2022/09/05 11:57:30;;;;;;;2.57;2.37;;;25.80;55.40;;;;;;5044236;28;20856;-45
2022/09/05 12:00:11;;;;;;;2.13;2.03;;;25.90;55.40;;;;;;5048302;28;20465;-45
2022/09/05 12:03:45;;;;;;;3.40;2.17;;;25.90;55.60;;;;;;5055000;28;20476;-45
2022/09/05 12:06:48;;;;;;;2.70;2.43;;;26.00;55.50;;;;;;5060222;28;20561;-45
2022/09/05 12:09:34;;;;;;;2.90;2.53;;;26.00;55.00;;;;;;5061788;28;20455;-45
2022/09/05 12:12:25;;;;;;;3.13;2.63;;;26.00;54.90;;;;;;5060151;28;20468;-45
2022/09/05 12:15:33;;;;;;;2.70;1.90;;;26.00;55.00;;;;;;5062441;28;20778;-45
2022/09/05 12:18:09;;;;;;;2.97;2.30;;;26.00;55.40;;;;;;5058923;28;20467;-45
2022/09/05 12:20:47;;;;;;;2.67;2.47;;;26.00;55.20;;;;;;5062511;28;20451;-45
2022/09/05 12:23:28;;;;;;;3.20;3.00;;;26.00;55.70;;;;;;5062732;28;20477;-44
2022/09/05 12:26:36;;;;;;;2.67;2.47;;;26.00;55.20;;;;;;5060551;28;20507;-45
2022/09/05 12:29:26;;;;;;;2.80;2.60;;;25.90;54.20;;;;;;5058839;28;20441;-45
2022/09/05 12:32:19;;;;;;;2.80;2.60;;;26.00;54.50;;;;;;5060606;28;20977;-45
2022/09/05 12:35:06;;;;;;;2.40;2.30;;;26.00;54.40;;;;;;5046955;28;20449;-45
2022/09/05 12:38:22;;;;;;;2.53;2.33;;;26.10;54.60;;;;;;5062204;28;20438;-45
2022/09/05 12:41:14;;;;;;;2.33;2.20;;;26.10;54.90;;;;;;5041237;28;20450;-44
2022/09/05 12:44:00;;;;;;;2.60;2.20;;;26.10;54.00;;;;;;5048582;28;20463;-45
2022/09/05 12:47:04;;;;;;;5.10;2.80;;;26.20;54.00;;;;;;5058427;28;20429;-44
2022/09/05 12:50:16;;;;;;;2.43;2.23;;;26.20;54.40;;;;;;5064371;28;20459;-44
2022/09/05 12:52:48;;;;;;;2.70;2.50;;;26.20;54.40;;;;;;5048077;28;20815;-44
2022/09/05 12:55:36;;;;;;;2.90;2.20;;;26.30;54.30;;;;;;5062129;28;20448;-45
2022/09/05 12:58:16;;;;;;;2.20;2.10;;;26.30;54.30;;;;;;5062460;28;20468;-44
2022/09/05 13:01:15;;;;;;;2.83;2.53;;;26.30;53.40;;;;;;5064647;28;20429;-44
2022/09/05 13:04:12;;;;;;;2.50;2.13;;;26.30;53.30;;;;;;5064092;28;20485;-44
2022/09/05 13:06:53;;;;;;;2.20;2.00;;;26.30;51.60;;;;;;5064248;28;20520;-44
2022/09/05 13:09:24;;;;;;;2.57;2.37;;;26.30;51.40;;;;;;5046299;28;20483;-44
2022/09/05 13:12:23;;;;;;;2.47;2.23;;;26.40;51.80;;;;;;5062127;28;20435;-45
2022/09/05 13:15:18;;;;;;;3.10;2.70;;;26.40;51.80;;;;;;5044993;28;20444;-44
2022/09/05 13:18:07;;;;;;;4.77;2.80;;;26.50;52.50;;;;;;5064406;28;21515;-44
2022/09/05 13:20:44;;;;;;;2.53;2.30;;;26.50;52.40;;;;;;5061846;28;20593;-44
2022/09/05 13:23:23;;;;;;;2.43;2.23;;;26.50;52.00;;;;;;5063099;28;20515;-44
2022/09/05 13:26:18;;;;;;;3.03;2.33;;;26.50;51.80;;;;;;5066571;28;20477;-44
2022/09/05 13:28:56;;;;;;;1.80;1.70;;;26.50;50.90;;;;;;5062614;28;20448;-44
2022/09/05 13:31:42;;;;;;;2.13;1.90;;;26.60;50.00;;;;;;5065194;28;21029;-44
2022/09/05 13:34:45;;;;;;;1.80;1.70;;;26.60;49.10;;;;;;5066022;28;20445;-44
2022/09/05 13:37:47;;;;;;;1.93;1.50;;;26.60;49.00;;;;;;5053375;28;20496;-44
2022/09/05 13:40:39;;;;;;;2.17;1.97;;;26.60;45.70;;;;;;5049895;28;20799;-44
2022/09/05 13:43:13;;;;;;;3.50;2.00;;;26.60;46.50;;;;;;5064982;28;20772;-44
2022/09/05 13:46:02;;;;;;;2.13;2.03;;;26.70;47.80;;;;;;5066888;28;20806;-45
2022/09/05 13:48:55;;;;;;;1.87;1.77;;;26.70;48.50;;;;;;5065336;28;20448;-44
2022/09/05 13:51:46;;;;;;;2.27;2.07;;;26.80;48.50;;;;;;5065755;28;20432;-44
2022/09/05 13:54:38;;;;;;;3.30;2.30;;;26.80;48.70;;;;;;5065126;28;20449;-44
2022/09/05 13:57:26;;;;;;;2.13;2.03;;;26.70;48.30;;;;;;5064839;28;20469;-44
2022/09/05 14:00:24;;;;;;;2.37;2.00;;;26.70;47.30;;;;;;5066895;28;20445;-44
2022/09/05 14:03:18;;;;;;;3.80;2.07;;;26.80;47.90;;;;;;5057056;28;20495;-44
2022/09/05 14:06:46;;;;;;;1.80;1.70;;;26.80;48.40;;;;;;5040986;28;20206;-44
2022/09/05 14:09:32;;;;;;;1.87;1.70;;;26.80;48.50;;;;;;5047135;28;20218;-44
2022/09/05 14:12:07;;;;;;;2.00;1.90;;;26.80;48.60;;;;;;5063190;28;20683;-44
2022/09/05 14:14:34;;;;;;;3.27;2.13;;;26.80;48.90;;;;;;5064634;28;20449;-44
2022/09/05 14:17:20;;;;;;;2.27;2.07;;;26.80;49.20;;;;;;5064865;28;20202;-44
2022/09/05 14:23:14;;;;;;;2.50;2.30;;;26.80;49.20;;;;;;5064765;28;20621;-45
2022/09/05 14:25:55;;;;;;;2.33;2.23;;;26.80;48.90;;;;;;5066156;28;20976;-44
2022/09/05 14:28:35;;;;;;;2.00;1.90;;;26.80;48.80;;;;;;5060150;28;20210;-45
2022/09/05 14:31:12;;;;;;;1.77;1.60;;;26.70;48.80;;;;;;5065451;28;20456;-44
2022/09/05 14:34:27;;;;;;;2.63;2.10;;;26.70;48.50;;;;;;5066176;28;20215;-44
2022/09/05 14:37:30;;;;;;;3.40;1.93;;;26.70;48.00;;;;;;5065291;28;20215;-44
2022/09/05 14:41:10;;;;;;;1.77;1.67;;;26.70;48.10;;;;;;5070583;28;20445;-43
2022/09/05 14:44:23;;;;;;;2.77;1.80;;;26.70;47.80;;;;;;5069516;28;20486;-43
2022/09/05 14:47:09;;;;;;;2.20;2.10;;;26.70;46.80;;;;;;5048749;28;20938;-43
2022/09/05 14:49:59;;;;;;;2.27;2.07;;;26.70;46.80;;;;;;5067403;28;20445;-43
2022/09/05 14:52:32;;;;;;;1.80;1.70;;;26.70;46.70;;;;;;5071499;28;21027;-43